Time;durP1;ratioP1;P1;durP2;ratioP2;P2;SDS_P1;SDS_P2;PMS_P1;PMS_P2;Temp;Humidity;BMP_temperature;BMP_pressure;BME280_temperature;BME280_humidity;BME280_pressure;Samples;Min_cycle;Max_cycle;Signal;HPM_P1;HPM_P2
2022/09/08 00:01:45;;;;;;;0.63;0.43;;;19.00;72.10;;;;;;5111435;28;20043;-73
2022/09/08 00:04:11;;;;;;;0.40;0.40;;;19.00;72.20;;;;;;5111275;28;20123;-74
2022/09/08 00:06:37;;;;;;;0.30;0.30;;;18.90;72.20;;;;;;5093085;28;20046;-74
2022/09/08 00:09:04;;;;;;;0.30;0.30;;;18.90;72.30;;;;;;5094492;28;20046;-76
2022/09/08 00:11:32;;;;;;;0.28;0.28;;;18.90;72.40;;;;;;5110592;28;20104;-75
2022/09/08 00:14:02;;;;;;;0.38;0.38;;;18.90;72.40;;;;;;5116136;28;20589;-77
2022/09/08 00:16:28;;;;;;;0.43;0.43;;;18.90;72.50;;;;;;5117061;28;20071;-75
2022/09/08 00:18:53;;;;;;;0.40;0.40;;;18.90;72.60;;;;;;5118578;28;20046;-75
2022/09/08 00:21:21;;;;;;;0.40;0.40;;;18.90;72.70;;;;;;5100585;28;20043;-74
2022/09/08 00:23:47;;;;;;;0.40;0.40;;;18.90;72.80;;;;;;5101300;28;20051;-74
2022/09/08 00:26:13;;;;;;;0.30;0.30;;;18.80;72.80;;;;;;5119601;28;20044;-75
2022/09/08 00:28:39;;;;;;;0.50;0.40;;;18.80;72.90;;;;;;5119429;28;20043;-75
2022/09/08 00:31:05;;;;;;;0.20;0.20;;;18.80;72.90;;;;;;5085130;28;20074;-74
2022/09/08 00:33:32;;;;;;;0.20;0.20;;;18.80;73.00;;;;;;5121009;28;20039;-74
2022/09/08 00:35:58;;;;;;;0.30;0.30;;;18.80;73.10;;;;;;5100435;28;20031;-73
2022/09/08 00:38:25;;;;;;;0.40;0.40;;;18.80;73.20;;;;;;5118510;28;20032;-74
2022/09/08 00:40:52;;;;;;;0.38;0.35;;;18.80;73.40;;;;;;5100729;28;20089;-73
2022/09/08 00:43:40;;;;;;;0.32;0.32;;;18.80;73.60;;;;;;5120450;28;20047;-73
2022/09/08 00:46:24;;;;;;;0.90;0.50;;;18.70;73.70;;;;;;5104046;28;20039;-74
2022/09/08 00:49:13;;;;;;;0.40;0.40;;;18.80;74.00;;;;;;5121220;28;20040;-74
2022/09/08 00:51:41;;;;;;;0.30;0.30;;;18.60;74.10;;;;;;5124340;28;20120;-74
2022/09/08 00:54:10;;;;;;;0.35;0.35;;;18.60;74.30;;;;;;5122616;28;20051;-74
2022/09/08 00:56:37;;;;;;;0.40;0.40;;;18.60;74.40;;;;;;5127106;28;20035;-76
2022/09/08 00:59:04;;;;;;;0.30;0.30;;;18.50;74.50;;;;;;5105059;28;20040;-77
2022/09/08 01:01:33;;;;;;;0.55;0.38;;;18.50;74.60;;;;;;5099952;28;20059;-76
2022/09/08 01:03:58;;;;;;;0.30;0.30;;;18.50;74.80;;;;;;5116686;28;20047;-77
2022/09/08 01:12:45;;;;;;;;;;;18.40;75.30;;;;;;5117103;28;20054;-76
2022/09/08 01:15:21;;;;;;;0.28;0.28;;;18.40;75.00;;;;;;5115559;28;19908;-76
2022/09/08 01:17:51;;;;;;;0.30;0.30;;;18.40;75.20;;;;;;5098704;28;20128;-76
2022/09/08 01:20:20;;;;;;;0.20;0.20;;;18.40;75.30;;;;;;5101388;28;20081;-76
2022/09/08 01:23:06;;;;;;;0.85;0.30;;;18.30;75.50;;;;;;5118691;28;20032;-77
2022/09/08 01:26:00;;;;;;;0.28;0.28;;;18.30;75.70;;;;;;5104580;28;20039;-76
2022/09/08 01:28:30;;;;;;;0.30;0.30;;;18.30;75.90;;;;;;5117629;28;20051;-76
2022/09/08 01:30:56;;;;;;;0.30;0.30;;;18.30;75.90;;;;;;5120396;28;20068;-77
2022/09/08 01:33:22;;;;;;;0.73;0.40;;;18.30;76.00;;;;;;5125050;28;20405;-77
2022/09/08 01:35:48;;;;;;;0.35;0.30;;;18.30;76.20;;;;;;5126549;28;20047;-78
2022/09/08 01:38:14;;;;;;;0.30;0.30;;;18.30;76.30;;;;;;5119020;28;20027;-77
2022/09/08 01:40:39;;;;;;;0.80;0.50;;;18.20;76.30;;;;;;5119803;28;20522;-77
2022/09/08 01:43:08;;;;;;;0.47;0.40;;;18.20;76.50;;;;;;5123904;28;20050;-77
2022/09/08 01:45:34;;;;;;;0.25;0.25;;;18.20;76.70;;;;;;5110796;28;20503;-76
2022/09/08 01:48:00;;;;;;;0.30;0.30;;;18.20;76.70;;;;;;5125353;28;20042;-77
2022/09/08 01:50:26;;;;;;;0.20;0.20;;;18.20;76.80;;;;;;5130997;28;20099;-77
2022/09/08 01:52:52;;;;;;;0.40;0.40;;;18.20;77.00;;;;;;5130815;28;20046;-77
2022/09/08 01:55:17;;;;;;;0.73;0.30;;;18.00;77.00;;;;;;5124791;28;20122;-77
2022/09/08 01:57:43;;;;;;;0.43;0.40;;;18.10;77.20;;;;;;5101527;28;20035;-79
2022/09/08 02:00:10;;;;;;;0.60;0.40;;;18.20;77.40;;;;;;5113774;28;20043;-79
2022/09/08 02:02:36;;;;;;;0.63;0.55;;;18.10;77.50;;;;;;5094941;28;20058;-80
2022/09/08 02:05:02;;;;;;;0.30;0.30;;;18.10;77.70;;;;;;5095038;28;20043;-81
2022/09/08 02:07:28;;;;;;;0.77;0.47;;;18.00;77.80;;;;;;5076142;28;20048;-80
2022/09/08 02:09:53;;;;;;;0.22;0.22;;;17.90;77.90;;;;;;5095197;28;20042;-80
2022/09/08 02:12:19;;;;;;;0.20;0.20;;;17.90;77.90;;;;;;5113000;28;20035;-80
2022/09/08 02:14:45;;;;;;;0.55;0.50;;;18.00;78.10;;;;;;5095073;28;20446;-80
2022/09/08 02:17:11;;;;;;;0.25;0.25;;;18.00;78.20;;;;;;5095206;28;20059;-79
2022/09/08 02:19:37;;;;;;;0.20;0.20;;;17.90;78.30;;;;;;5095223;28;20039;-79
2022/09/08 02:22:03;;;;;;;0.40;0.40;;;17.90;78.40;;;;;;5078049;28;20504;-79
2022/09/08 02:24:29;;;;;;;0.60;0.30;;;17.80;78.50;;;;;;5094899;28;20036;-79
2022/09/08 02:26:55;;;;;;;1.00;0.60;;;17.90;78.60;;;;;;5094669;28;20493;-79
2022/09/08 02:29:22;;;;;;;0.40;0.40;;;17.90;78.70;;;;;;5094658;28;20051;-79
2022/09/08 02:31:47;;;;;;;0.60;0.30;;;17.80;78.70;;;;;;5061130;28;20035;-79
2022/09/08 02:34:13;;;;;;;0.47;0.40;;;17.80;78.80;;;;;;5113054;28;20036;-79
2022/09/08 02:36:39;;;;;;;0.30;0.30;;;17.70;78.80;;;;;;5094078;28;20031;-79
2022/09/08 02:39:05;;;;;;;1.27;0.45;;;17.70;78.90;;;;;;5112567;28;20078;-78
2022/09/08 02:41:31;;;;;;;0.35;0.35;;;17.70;79.00;;;;;;5113218;28;20044;-79
2022/09/08 02:43:57;;;;;;;0.47;0.30;;;17.70;79.00;;;;;;5094176;28;20515;-79
2022/09/08 02:46:24;;;;;;;0.70;0.38;;;17.70;79.10;;;;;;5094779;28;20077;-79
2022/09/08 02:48:50;;;;;;;0.75;0.40;;;17.70;79.20;;;;;;5094482;28;20044;-79
2022/09/08 02:51:18;;;;;;;0.70;0.30;;;17.70;79.30;;;;;;5094332;28;20059;-78
2022/09/08 02:53:44;;;;;;;0.73;0.40;;;17.60;79.30;;;;;;5112428;28;20036;-78
2022/09/08 02:56:10;;;;;;;0.20;0.20;;;17.60;79.40;;;;;;5094652;28;20119;-79
2022/09/08 02:58:36;;;;;;;0.22;0.22;;;17.60;79.40;;;;;;5112422;28;20127;-78
2022/09/08 03:01:04;;;;;;;0.90;0.40;;;17.60;79.50;;;;;;5094006;28;20070;-79
2022/09/08 03:03:30;;;;;;;1.48;0.60;;;17.60;79.60;;;;;;5112264;28;20504;-79
2022/09/08 03:05:56;;;;;;;0.45;0.40;;;17.60;79.60;;;;;;5111973;28;20032;-78
2022/09/08 03:08:24;;;;;;;0.50;0.30;;;17.60;79.60;;;;;;5112349;28;20525;-79
2022/09/08 03:10:50;;;;;;;0.43;0.40;;;17.60;79.70;;;;;;5093993;28;20040;-79
2022/09/08 03:13:17;;;;;;;0.38;0.30;;;17.60;79.70;;;;;;5077038;28;20366;-78
2022/09/08 03:15:43;;;;;;;0.30;0.30;;;17.60;79.80;;;;;;5112615;28;20451;-78
2022/09/08 03:18:10;;;;;;;0.63;0.35;;;17.60;79.80;;;;;;5060398;28;20047;-78
2022/09/08 03:20:38;;;;;;;0.40;0.40;;;17.60;79.80;;;;;;5112494;28;20123;-78
2022/09/08 03:23:04;;;;;;;0.40;0.40;;;17.70;80.00;;;;;;5094340;28;20036;-78
2022/09/08 03:25:33;;;;;;;0.40;0.40;;;17.60;79.90;;;;;;5111928;28;20050;-78
2022/09/08 03:27:59;;;;;;;0.50;0.22;;;17.50;79.80;;;;;;5094911;28;20358;-78
2022/09/08 03:30:24;;;;;;;1.05;0.65;;;17.50;79.80;;;;;;5093975;28;20035;-78
2022/09/08 03:32:50;;;;;;;0.88;0.50;;;17.50;79.90;;;;;;5112404;28;20044;-78
2022/09/08 03:35:17;;;;;;;0.93;0.40;;;17.60;80.00;;;;;;5093721;28;20127;-78
2022/09/08 03:37:43;;;;;;;0.38;0.38;;;17.50;80.00;;;;;;5094036;28;20036;-78
2022/09/08 03:40:12;;;;;;;0.35;0.20;;;17.50;80.00;;;;;;5094213;28;20047;-78
2022/09/08 03:42:39;;;;;;;0.35;0.35;;;17.60;80.20;;;;;;5093571;28;20046;-78
2022/09/08 03:45:08;;;;;;;0.40;0.30;;;17.50;80.10;;;;;;5112345;28;20035;-78
2022/09/08 03:47:35;;;;;;;0.93;0.40;;;17.50;80.10;;;;;;5113737;28;20059;-78
2022/09/08 03:50:00;;;;;;;0.40;0.40;;;17.60;80.10;;;;;;5097038;28;20036;-78
2022/09/08 03:52:26;;;;;;;0.30;0.30;;;17.50;80.10;;;;;;5115415;28;20031;-79
2022/09/08 03:54:53;;;;;;;0.30;0.30;;;17.60;80.10;;;;;;5097568;28;20082;-78
2022/09/08 03:57:21;;;;;;;0.50;0.40;;;17.60;80.10;;;;;;5080428;28;20063;-78
2022/09/08 03:59:49;;;;;;;0.40;0.40;;;17.50;80.20;;;;;;5115241;28;20067;-78
2022/09/08 04:02:15;;;;;;;0.63;0.40;;;17.50;80.30;;;;;;5080130;28;20378;-78
2022/09/08 04:04:42;;;;;;;0.30;0.30;;;17.40;80.30;;;;;;5097105;28;20051;-78
2022/09/08 04:07:09;;;;;;;0.57;0.40;;;17.60;80.50;;;;;;5115165;28;20032;-78
2022/09/08 04:09:36;;;;;;;0.82;0.52;;;17.50;80.60;;;;;;5115292;28;20044;-78
2022/09/08 04:12:02;;;;;;;0.70;0.50;;;17.50;80.70;;;;;;5097274;28;20556;-78
2022/09/08 04:14:28;;;;;;;0.95;0.60;;;17.50;80.70;;;;;;5097671;28;20032;-78
2022/09/08 04:16:54;;;;;;;0.73;0.60;;;17.50;80.70;;;;;;5115972;28;20031;-78
2022/09/08 04:19:20;;;;;;;0.77;0.32;;;17.40;80.70;;;;;;5080114;28;20040;-78
2022/09/08 04:21:46;;;;;;;1.67;0.60;;;17.50;80.80;;;;;;5116362;28;20043;-78
2022/09/08 04:24:12;;;;;;;1.25;0.70;;;17.40;80.80;;;;;;5116931;28;20043;-78
2022/09/08 04:26:38;;;;;;;0.70;0.60;;;17.40;80.90;;;;;;5101408;28;20067;-78
2022/09/08 04:29:04;;;;;;;0.88;0.40;;;17.40;81.00;;;;;;5104516;28;20485;-77
2022/09/08 04:31:29;;;;;;;1.48;0.50;;;17.40;81.00;;;;;;5102595;28;20063;-77
2022/09/08 04:33:56;;;;;;;0.73;0.40;;;17.40;81.10;;;;;;5126490;28;20040;-78
2022/09/08 04:36:22;;;;;;;0.50;0.50;;;17.40;81.10;;;;;;5125557;28;20036;-77
2022/09/08 04:38:48;;;;;;;0.93;0.60;;;17.30;81.10;;;;;;5105422;28;20044;-77
2022/09/08 04:41:16;;;;;;;1.85;0.45;;;17.30;81.20;;;;;;5114123;28;20091;-78
2022/09/08 04:43:42;;;;;;;0.50;0.50;;;17.30;81.30;;;;;;5086920;28;20074;-78
2022/09/08 04:46:12;;;;;;;0.28;0.28;;;17.30;81.30;;;;;;5122367;28;20089;-77
2022/09/08 04:48:39;;;;;;;0.40;0.40;;;17.20;81.40;;;;;;5120105;28;20054;-77
2022/09/08 04:51:05;;;;;;;1.20;0.40;;;17.20;81.40;;;;;;5121994;28;20051;-78
2022/09/08 04:53:35;;;;;;;0.45;0.30;;;17.30;81.70;;;;;;5100070;28;20120;-78
2022/09/08 04:56:01;;;;;;;0.98;0.40;;;17.20;81.60;;;;;;5108681;28;20031;-78
2022/09/08 04:58:29;;;;;;;0.40;0.32;;;17.20;81.70;;;;;;5077047;28;20038;-78
2022/09/08 05:01:01;;;;;;;0.60;0.45;;;17.20;81.70;;;;;;5116775;28;20019;-78
2022/09/08 05:03:27;;;;;;;0.43;0.40;;;17.20;81.80;;;;;;5136584;28;20099;-79
2022/09/08 05:05:53;;;;;;;0.95;0.60;;;17.10;81.70;;;;;;5102739;28;20071;-78
2022/09/08 05:08:19;;;;;;;0.47;0.47;;;17.10;81.80;;;;;;5137096;28;20039;-78
2022/09/08 05:10:47;;;;;;;0.60;0.50;;;17.10;81.80;;;;;;5132000;28;20035;-79
2022/09/08 05:13:13;;;;;;;1.35;0.70;;;17.10;81.90;;;;;;5097955;28;20047;-78
2022/09/08 05:15:39;;;;;;;0.50;0.50;;;17.10;81.90;;;;;;5096235;28;20409;-79
2022/09/08 05:18:05;;;;;;;0.50;0.50;;;17.10;82.00;;;;;;5079526;28;20039;-83
2022/09/08 05:20:30;;;;;;;1.23;0.60;;;17.00;82.00;;;;;;5062880;28;20082;-84
2022/09/08 05:22:56;;;;;;;0.70;0.65;;;17.00;82.10;;;;;;5079771;28;20042;-84
2022/09/08 05:25:22;;;;;;;0.47;0.40;;;17.00;82.20;;;;;;5096176;28;20560;-83
2022/09/08 05:27:48;;;;;;;2.53;0.50;;;17.10;82.30;;;;;;5114380;28;20039;-82
2022/09/08 05:30:14;;;;;;;0.40;0.40;;;17.00;82.30;;;;;;5096045;28;20043;-81
2022/09/08 05:32:40;;;;;;;0.45;0.45;;;16.90;82.30;;;;;;5095934;28;20562;-82
2022/09/08 05:35:07;;;;;;;1.52;0.32;;;16.90;82.40;;;;;;5095940;28;20124;-81
2022/09/08 05:37:34;;;;;;;0.40;0.40;;;16.90;82.40;;;;;;5125350;28;20095;-81
2022/09/08 05:40:03;;;;;;;0.52;0.30;;;16.90;82.40;;;;;;5117323;28;20073;-81
2022/09/08 05:42:29;;;;;;;0.30;0.30;;;16.90;82.40;;;;;;5076756;28;20842;-81
2022/09/08 05:44:55;;;;;;;0.40;0.30;;;17.00;82.50;;;;;;5095888;28;20060;-82
2022/09/08 05:47:20;;;;;;;0.43;0.30;;;17.00;82.60;;;;;;5066893;28;20403;-83
2022/09/08 05:49:46;;;;;;;0.50;0.50;;;16.90;82.50;;;;;;5058967;28;20045;-81
2022/09/08 05:52:24;;;;;;;2.25;0.47;;;16.90;82.50;;;;;;5061947;28;20048;-81
2022/09/08 05:54:50;;;;;;;0.57;0.43;;;16.90;82.50;;;;;;4978613;28;20047;-82
2022/09/08 05:57:16;;;;;;;0.50;0.50;;;16.90;82.50;;;;;;4972943;28;20126;-82
2022/09/08 05:59:42;;;;;;;0.80;0.40;;;16.90;82.60;;;;;;4956734;28;20070;-82
2022/09/08 06:02:08;;;;;;;0.45;0.45;;;16.90;82.70;;;;;;4972321;28;20202;-82
2022/09/08 06:04:33;;;;;;;0.63;0.60;;;16.90;82.90;;;;;;4972782;28;20039;-81
2022/09/08 06:06:59;;;;;;;0.90;0.60;;;16.90;82.90;;;;;;4972609;28;20125;-81
2022/09/08 06:09:25;;;;;;;1.27;0.50;;;16.90;82.90;;;;;;4971445;28;20579;-80
2022/09/08 06:11:51;;;;;;;0.90;0.57;;;16.80;82.90;;;;;;4971770;28;20178;-80
2022/09/08 06:14:16;;;;;;;0.82;0.55;;;16.70;82.90;;;;;;4972299;28;20373;-80
2022/09/08 06:16:42;;;;;;;1.00;0.63;;;16.80;83.60;;;;;;4973201;28;20105;-79
2022/09/08 06:19:09;;;;;;;0.90;0.80;;;16.80;83.00;;;;;;4976375;28;20049;-77
2022/09/08 06:21:35;;;;;;;0.75;0.70;;;16.80;83.10;;;;;;4993402;28;20069;-78
2022/09/08 06:24:04;;;;;;;0.98;0.60;;;16.70;83.00;;;;;;4977318;28;20484;-78
2022/09/08 06:26:45;;;;;;;0.70;0.60;;;16.80;83.20;;;;;;5070767;28;20126;-78
2022/09/08 06:29:32;;;;;;;0.95;0.52;;;16.80;83.20;;;;;;5094900;28;20405;-78
2022/09/08 06:32:07;;;;;;;1.42;0.80;;;16.80;83.20;;;;;;5094955;28;20043;-78
2022/09/08 06:34:56;;;;;;;1.00;0.75;;;16.80;83.30;;;;;;5094878;28;20040;-78
2022/09/08 06:37:40;;;;;;;0.65;0.50;;;16.70;83.40;;;;;;5113278;28;20043;-78
2022/09/08 06:40:18;;;;;;;0.55;0.55;;;16.70;83.80;;;;;;5112692;28;20047;-78
2022/09/08 06:43:07;;;;;;;1.38;0.60;;;16.70;83.50;;;;;;5097226;28;20085;-76
2022/09/08 06:45:36;;;;;;;0.47;0.43;;;16.70;83.50;;;;;;5093012;28;20286;-76
2022/09/08 06:48:26;;;;;;;0.50;0.50;;;16.70;83.40;;;;;;5095093;28;20046;-76
2022/09/08 06:51:07;;;;;;;0.90;0.50;;;16.80;83.60;;;;;;5112901;28;20051;-76
2022/09/08 06:53:38;;;;;;;1.17;0.30;;;16.70;83.40;;;;;;5096157;28;20046;-76
2022/09/08 06:56:19;;;;;;;0.68;0.52;;;16.70;83.40;;;;;;5112610;28;20040;-76
2022/09/08 06:58:46;;;;;;;1.15;0.50;;;16.80;83.60;;;;;;5112888;28;20123;-76
2022/09/08 07:01:22;;;;;;;0.50;0.50;;;16.80;83.50;;;;;;5094617;28;20421;-76
2022/09/08 07:04:12;;;;;;;0.40;0.40;;;16.80;83.50;;;;;;5094995;28;20044;-76
2022/09/08 07:07:05;;;;;;;0.65;0.60;;;16.80;83.60;;;;;;5112933;28;20044;-76
2022/09/08 07:09:48;;;;;;;0.40;0.40;;;16.70;83.60;;;;;;5112662;28;20409;-76
2022/09/08 07:12:41;;;;;;;0.60;0.60;;;16.80;83.60;;;;;;5110751;28;20051;-76
2022/09/08 07:15:38;;;;;;;0.93;0.70;;;16.80;83.60;;;;;;5111571;28;20044;-76
2022/09/08 07:18:23;;;;;;;0.50;0.50;;;16.80;83.60;;;;;;5111378;28;20466;-76
2022/09/08 07:20:54;;;;;;;0.75;0.55;;;16.80;83.60;;;;;;5111948;28;20043;-76
2022/09/08 07:23:24;;;;;;;0.52;0.40;;;16.80;83.50;;;;;;5116206;28;20040;-76
2022/09/08 07:26:00;;;;;;;0.40;0.40;;;16.90;83.50;;;;;;5115936;28;20048;-76
2022/09/08 07:28:29;;;;;;;1.00;0.40;;;16.80;83.60;;;;;;5096952;28;20055;-76
2022/09/08 07:31:00;;;;;;;2.55;0.82;;;16.90;83.60;;;;;;5116312;28;20040;-76
2022/09/08 07:33:41;;;;;;;0.43;0.40;;;16.90;83.60;;;;;;5115885;28;20035;-76
2022/09/08 07:36:32;;;;;;;0.80;0.75;;;16.90;83.60;;;;;;5114470;28;20119;-76
2022/09/08 07:39:04;;;;;;;0.60;0.60;;;17.00;83.70;;;;;;5115473;28;20044;-77
2022/09/08 07:41:47;;;;;;;0.60;0.50;;;17.00;83.60;;;;;;5098292;28;20114;-76
2022/09/08 07:44:15;;;;;;;0.40;0.40;;;17.00;83.70;;;;;;5115524;28;20046;-77
2022/09/08 07:47:20;;;;;;;0.90;0.55;;;17.00;83.70;;;;;;5116099;28;20050;-77
2022/09/08 07:50:19;;;;;;;0.57;0.50;;;17.00;83.80;;;;;;5083220;28;20044;-76
2022/09/08 07:53:10;;;;;;;0.73;0.50;;;17.00;83.70;;;;;;5115833;28;20116;-76
2022/09/08 07:55:40;;;;;;;0.50;0.50;;;17.10;83.70;;;;;;5113910;28;20155;-76
2022/09/08 07:58:31;;;;;;;0.37;0.37;;;17.10;83.60;;;;;;5096193;28;20036;-76
2022/09/08 08:01:19;;;;;;;1.48;0.63;;;17.20;83.70;;;;;;5114773;28;20069;-76
2022/09/08 08:04:02;;;;;;;0.65;0.65;;;17.10;83.60;;;;;;5115012;28;20054;-75
2022/09/08 08:06:40;;;;;;;1.27;0.60;;;17.20;83.70;;;;;;5115065;28;20036;-76
2022/09/08 08:09:16;;;;;;;0.82;0.82;;;17.10;83.70;;;;;;5098091;28;20098;-76
2022/09/08 08:11:58;;;;;;;0.68;0.60;;;17.10;83.70;;;;;;5114225;28;20123;-75
2022/09/08 08:14:44;;;;;;;1.17;0.68;;;17.10;83.80;;;;;;5098992;28;20401;-75
2022/09/08 08:17:41;;;;;;;0.60;0.60;;;17.10;83.90;;;;;;5114247;28;20074;-75
2022/09/08 08:20:26;;;;;;;0.57;0.57;;;17.10;83.70;;;;;;5101869;28;20520;-75
2022/09/08 08:23:07;;;;;;;0.65;0.65;;;17.10;83.70;;;;;;5113701;28;20062;-75
2022/09/08 08:25:47;;;;;;;0.50;0.50;;;17.20;83.70;;;;;;5115677;28;20558;-75
2022/09/08 08:28:17;;;;;;;0.57;0.57;;;17.30;83.70;;;;;;5113901;28;20048;-75
2022/09/08 08:31:02;;;;;;;0.90;0.60;;;17.30;83.50;;;;;;5114855;28;20035;-75
2022/09/08 08:33:32;;;;;;;1.00;0.68;;;17.30;83.50;;;;;;5095858;28;20048;-75
2022/09/08 08:36:05;;;;;;;0.57;0.50;;;17.40;83.50;;;;;;5097243;28;20122;-75
2022/09/08 08:38:37;;;;;;;0.80;0.60;;;17.50;83.50;;;;;;5115393;28;20313;-75
2022/09/08 08:41:12;;;;;;;0.65;0.65;;;17.60;83.40;;;;;;5115104;28;20059;-76
2022/09/08 08:43:57;;;;;;;0.55;0.55;;;17.60;83.20;;;;;;5115244;28;20066;-76
2022/09/08 08:46:47;;;;;;;1.05;0.70;;;17.70;83.20;;;;;;5114868;28;20097;-76
2022/09/08 08:49:43;;;;;;;0.73;0.70;;;17.70;83.60;;;;;;5099449;28;20090;-76
2022/09/08 08:52:29;;;;;;;0.57;0.50;;;17.70;83.00;;;;;;5114700;28;20062;-77
2022/09/08 08:55:21;;;;;;;1.00;0.70;;;17.80;83.10;;;;;;5113328;28;20509;-76
2022/09/08 08:58:24;;;;;;;0.60;0.60;;;17.90;82.80;;;;;;5114051;28;20043;-76
2022/09/08 09:01:03;;;;;;;0.82;0.60;;;18.00;82.90;;;;;;5096207;28;20060;-76
2022/09/08 09:03:45;;;;;;;0.95;0.65;;;18.00;82.80;;;;;;5114382;28;20036;-76
2022/09/08 09:06:45;;;;;;;0.60;0.60;;;18.10;83.00;;;;;;5092499;28;20074;-75
2022/09/08 09:09:36;;;;;;;0.95;0.52;;;18.10;82.90;;;;;;5114385;28;20100;-76
2022/09/08 09:12:31;;;;;;;1.77;0.77;;;18.10;82.90;;;;;;5083010;28;20035;-75
2022/09/08 09:15:25;;;;;;;0.70;0.70;;;18.20;82.80;;;;;;5096088;28;20040;-76
2022/09/08 09:18:30;;;;;;;0.40;0.40;;;18.20;82.70;;;;;;5113579;28;20036;-77
2022/09/08 09:21:01;;;;;;;1.45;0.77;;;18.20;82.80;;;;;;5102708;28;20069;-76
2022/09/08 09:23:40;;;;;;;0.70;0.70;;;18.30;82.90;;;;;;5114447;28;20083;-76
2022/09/08 09:26:18;;;;;;;0.63;0.50;;;18.20;82.90;;;;;;5114178;28;20116;-77
2022/09/08 09:29:08;;;;;;;0.95;0.80;;;18.20;83.60;;;;;;5096858;28;20550;-76
2022/09/08 09:32:01;;;;;;;0.75;0.70;;;18.20;83.00;;;;;;5114623;28;20040;-76
2022/09/08 09:34:51;;;;;;;1.58;0.60;;;18.20;83.00;;;;;;5095738;28;20035;-76
2022/09/08 09:37:56;;;;;;;0.68;0.65;;;18.30;83.10;;;;;;5114240;28;20035;-76
2022/09/08 09:40:50;;;;;;;0.60;0.60;;;18.30;83.00;;;;;;5108100;28;20370;-76
2022/09/08 09:43:38;;;;;;;0.50;0.50;;;18.40;82.70;;;;;;5094142;28;20040;-76
2022/09/08 09:46:27;;;;;;;0.50;0.50;;;18.50;82.40;;;;;;5097940;28;20039;-76
2022/09/08 09:49:21;;;;;;;0.60;0.55;;;18.70;82.10;;;;;;5112704;28;20371;-75
2022/09/08 09:52:06;;;;;;;1.08;0.65;;;18.70;82.00;;;;;;5096365;28;20043;-76
2022/09/08 09:54:57;;;;;;;0.68;0.40;;;18.60;82.00;;;;;;5112288;28;20063;-75
2022/09/08 09:57:38;;;;;;;;;;;18.60;82.00;;;;;;5095143;28;20448;-75
2022/09/08 10:00:19;;;;;;;0.40;0.40;;;18.70;82.00;;;;;;5111843;28;20288;-76
2022/09/08 10:03:25;;;;;;;0.70;0.70;;;18.60;82.00;;;;;;5113689;28;20262;-74
2022/09/08 10:06:16;;;;;;;1.90;0.60;;;18.60;82.00;;;;;;5113304;28;20047;-76
2022/09/08 10:09:17;;;;;;;0.77;0.57;;;18.60;82.30;;;;;;5113033;28;20489;-76
2022/09/08 10:12:22;;;;;;;0.60;0.60;;;18.50;82.40;;;;;;5083417;28;20532;-75
2022/09/08 10:15:09;;;;;;;0.60;0.57;;;18.60;82.50;;;;;;5086529;28;20050;-75
2022/09/08 10:18:13;;;;;;;0.95;0.70;;;18.60;82.40;;;;;;5111583;28;20038;-75
2022/09/08 10:21:18;;;;;;;0.82;0.57;;;18.80;82.30;;;;;;5111724;28;20043;-75
2022/09/08 10:24:02;;;;;;;0.70;0.70;;;18.80;81.90;;;;;;5069872;28;20051;-75
2022/09/08 10:26:50;;;;;;;1.13;0.77;;;18.90;81.80;;;;;;5112679;28;20122;-75
2022/09/08 10:29:44;;;;;;;0.60;0.60;;;19.00;81.70;;;;;;5094985;28;20043;-75
2022/09/08 10:32:34;;;;;;;0.85;0.70;;;19.00;81.70;;;;;;5111738;28;20075;-75
2022/09/08 10:35:20;;;;;;;1.45;0.80;;;19.10;81.70;;;;;;5112424;28;20816;-74
2022/09/08 10:38:09;;;;;;;1.38;0.68;;;19.20;81.60;;;;;;5093715;28;20031;-75
2022/09/08 10:41:05;;;;;;;1.30;0.70;;;19.30;81.50;;;;;;5113422;28;20155;-75
2022/09/08 10:44:04;;;;;;;0.80;0.63;;;19.30;81.30;;;;;;5097756;28;20047;-75
2022/09/08 10:46:58;;;;;;;0.50;0.50;;;19.30;81.20;;;;;;5112759;28;20048;-75
2022/09/08 10:49:55;;;;;;;0.80;0.80;;;19.30;81.20;;;;;;5113102;28;20122;-74
2022/09/08 10:52:48;;;;;;;0.40;0.40;;;19.30;81.20;;;;;;5112552;28;20135;-74
2022/09/08 10:55:42;;;;;;;0.60;0.60;;;19.30;81.40;;;;;;5112180;28;20016;-74
2022/09/08 10:58:29;;;;;;;0.57;0.57;;;19.20;81.30;;;;;;5112880;28;20087;-74
2022/09/08 11:01:18;;;;;;;0.75;0.60;;;19.20;81.40;;;;;;5078819;28;20149;-74
2022/09/08 11:04:17;;;;;;;0.60;0.60;;;19.40;81.30;;;;;;5111840;28;20443;-74
2022/09/08 11:07:21;;;;;;;0.70;0.70;;;19.40;80.90;;;;;;5111273;28;20078;-75
2022/09/08 11:10:26;;;;;;;1.48;1.20;;;19.50;80.50;;;;;;5111768;28;20522;-74
2022/09/08 11:13:07;;;;;;;1.10;1.00;;;19.70;80.20;;;;;;5112397;28;20039;-74
2022/09/08 11:15:54;;;;;;;2.80;1.02;;;19.80;79.60;;;;;;5095892;28;20089;-74
2022/09/08 11:18:36;;;;;;;1.90;0.90;;;19.80;79.40;;;;;;5112374;28;20036;-74
2022/09/08 11:21:07;;;;;;;0.80;0.80;;;19.70;79.60;;;;;;5112267;28;20036;-75
2022/09/08 11:23:50;;;;;;;1.27;0.82;;;19.70;79.70;;;;;;5095165;28;20082;-76
2022/09/08 11:26:34;;;;;;;0.85;0.70;;;19.80;79.80;;;;;;5095378;28;20035;-75
2022/09/08 11:29:09;;;;;;;1.27;0.80;;;19.90;79.30;;;;;;5094055;28;20462;-75
2022/09/08 11:32:03;;;;;;;1.45;0.70;;;19.90;78.90;;;;;;5112183;28;20032;-75
2022/09/08 11:34:49;;;;;;;0.75;0.68;;;19.90;78.90;;;;;;5112338;28;20040;-75
2022/09/08 11:37:40;;;;;;;2.08;0.90;;;19.80;78.80;;;;;;5111397;28;20036;-76
2022/09/08 11:40:37;;;;;;;0.65;0.60;;;19.80;78.80;;;;;;5111497;28;20128;-75
2022/09/08 11:43:28;;;;;;;0.77;0.60;;;19.70;78.90;;;;;;5098944;28;20052;-75
2022/09/08 11:46:27;;;;;;;1.52;0.73;;;19.70;79.00;;;;;;5093403;28;20047;-75
2022/09/08 11:49:23;;;;;;;1.17;0.55;;;19.80;78.70;;;;;;5079402;28;20040;-76
2022/09/08 11:52:21;;;;;;;0.73;0.73;;;19.90;78.40;;;;;;5110919;28;20500;-75
2022/09/08 11:55:19;;;;;;;0.90;0.70;;;20.10;78.10;;;;;;5110381;28;20048;-75
2022/09/08 11:58:15;;;;;;;0.93;0.60;;;20.20;77.30;;;;;;5110079;28;20467;-75
2022/09/08 12:01:16;;;;;;;1.38;0.55;;;20.30;77.10;;;;;;5112040;28;20504;-75
2022/09/08 12:04:02;;;;;;;0.98;0.60;;;20.40;76.90;;;;;;5093521;28;20035;-75
2022/09/08 12:06:45;;;;;;;1.55;0.70;;;20.50;76.80;;;;;;5111652;28;20040;-75
2022/09/08 12:09:40;;;;;;;0.80;0.60;;;20.60;76.40;;;;;;5114144;28;20070;-75
2022/09/08 12:12:31;;;;;;;0.40;0.40;;;20.70;76.10;;;;;;5100453;28;20484;-75
2022/09/08 12:15:23;;;;;;;0.75;0.47;;;20.60;76.70;;;;;;5116176;28;20036;-79
2022/09/08 12:18:14;;;;;;;0.55;0.40;;;20.50;76.30;;;;;;5114307;28;20047;-78
2022/09/08 12:21:09;;;;;;;1.33;0.60;;;20.50;76.50;;;;;;5098912;28;21274;-79
2022/09/08 12:23:48;;;;;;;1.08;0.70;;;20.80;76.20;;;;;;5095630;28;20043;-76
2022/09/08 12:26:33;;;;;;;1.17;0.40;;;20.80;75.40;;;;;;5096848;28;20474;-77
2022/09/08 12:29:24;;;;;;;0.75;0.50;;;21.00;75.20;;;;;;5096786;28;20039;-77
2022/09/08 12:32:15;;;;;;;0.40;0.40;;;21.20;74.80;;;;;;5113594;28;20054;-78
2022/09/08 12:35:00;;;;;;;1.25;0.60;;;21.20;74.40;;;;;;5114328;28;20032;-76
2022/09/08 12:37:50;;;;;;;2.58;0.60;;;21.20;74.20;;;;;;5114642;28;20473;-76
2022/09/08 12:40:35;;;;;;;0.95;0.50;;;21.20;74.00;;;;;;5115480;28;20063;-77
2022/09/08 12:43:16;;;;;;;1.33;0.60;;;21.20;73.80;;;;;;5114283;28;20046;-76
2022/09/08 12:46:06;;;;;;;1.23;0.73;;;21.30;74.00;;;;;;5095415;28;20047;-78
2022/09/08 12:48:53;;;;;;;0.52;0.47;;;21.30;73.90;;;;;;5114117;28;20039;-76
2022/09/08 12:51:27;;;;;;;0.85;0.60;;;21.40;73.50;;;;;;5112647;28;20059;-76
2022/09/08 12:54:26;;;;;;;1.13;0.50;;;21.40;73.10;;;;;;5113027;28;20032;-78
2022/09/08 12:57:16;;;;;;;0.30;0.30;;;21.50;72.70;;;;;;5112666;28;20062;-77
2022/09/08 13:00:07;;;;;;;1.05;0.38;;;21.60;72.30;;;;;;5113756;28;20066;-77
2022/09/08 13:02:44;;;;;;;;;;;21.60;72.20;;;;;;5114806;28;20036;-78
2022/09/08 13:05:39;;;;;;;0.60;0.40;;;21.50;72.30;;;;;;5096214;28;19923;-77
2022/09/08 13:08:25;;;;;;;1.85;0.40;;;21.40;72.50;;;;;;5112497;28;20048;-77
2022/09/08 13:11:00;;;;;;;0.98;0.50;;;21.40;72.40;;;;;;5112914;28;20036;-78
2022/09/08 13:13:44;;;;;;;1.52;0.60;;;21.40;72.50;;;;;;5096002;28;20473;-76
2022/09/08 13:16:30;;;;;;;1.65;0.55;;;21.30;72.40;;;;;;5114163;28;20040;-76
2022/09/08 13:19:27;;;;;;;1.00;0.50;;;21.40;72.10;;;;;;5095359;28;20501;-77
2022/09/08 13:22:15;;;;;;;1.45;0.60;;;21.60;71.70;;;;;;5095949;28;20527;-76
2022/09/08 13:24:50;;;;;;;1.67;0.65;;;21.80;71.30;;;;;;5112908;28;20048;-77
2022/09/08 13:27:33;;;;;;;0.68;0.57;;;21.80;70.80;;;;;;5113936;28;20055;-76
2022/09/08 13:30:18;;;;;;;1.17;0.70;;;21.80;70.40;;;;;;5078808;28;20397;-76
2022/09/08 13:33:14;;;;;;;1.10;0.60;;;21.90;70.30;;;;;;5098723;28;20039;-75
2022/09/08 13:36:18;;;;;;;1.20;0.60;;;21.90;70.30;;;;;;5114398;28;20035;-76
2022/09/08 13:39:18;;;;;;;1.98;0.50;;;21.80;70.30;;;;;;5113953;28;20501;-76
2022/09/08 13:42:09;;;;;;;0.93;0.53;;;22.00;70.40;;;;;;5099165;28;20116;-77
2022/09/08 13:44:49;;;;;;;;;;;22.10;70.20;;;;;;5114978;28;20418;-77
2022/09/08 13:47:35;;;;;;;0.43;0.30;;;22.20;70.00;;;;;;5095514;28;19956;-76